Time;durP1;ratioP1;P1;durP2;ratioP2;P2;SDS_P1;SDS_P2;PMS_P1;PMS_P2;Temp;Humidity;BMP_temperature;BMP_pressure;BME280_temperature;BME280_humidity;BME280_pressure;Samples;Min_cycle;Max_cycle;Signal;HPM_P1;HPM_P2
2022/06/26 00:01:08;;;;;;;14.82;8.65;;;18.00;99.90;;;;;;5012316;28;20165;-83
2022/06/26 00:03:34;;;;;;;16.20;8.10;;;18.00;99.90;;;;;;5012632;28;20080;-83
2022/06/26 00:06:00;;;;;;;10.35;8.18;;;18.00;99.90;;;;;;5012297;28;20037;-83
2022/06/26 00:08:25;;;;;;;12.25;8.27;;;18.00;99.90;;;;;;5011141;28;20130;-83
2022/06/26 00:10:52;;;;;;;13.20;8.38;;;18.00;99.90;;;;;;5012656;28;20073;-82
2022/06/26 00:13:18;;;;;;;13.35;8.63;;;18.00;99.90;;;;;;5011657;28;20038;-82
2022/06/26 00:15:44;;;;;;;12.60;8.70;;;17.90;99.90;;;;;;5011313;28;20497;-83
2022/06/26 00:18:11;;;;;;;11.63;7.85;;;18.00;99.90;;;;;;5011063;28;20057;-83
2022/06/26 00:20:37;;;;;;;11.23;7.75;;;18.00;99.90;;;;;;5011572;28;20053;-83
2022/06/26 00:23:03;;;;;;;9.32;7.47;;;18.00;99.90;;;;;;5012018;28;20493;-83
2022/06/26 00:25:29;;;;;;;12.73;8.75;;;18.00;99.90;;;;;;5013040;28;20051;-83
2022/06/26 00:27:54;;;;;;;11.43;8.10;;;18.00;99.90;;;;;;5012517;28;20468;-82
2022/06/26 00:30:21;;;;;;;13.13;8.35;;;17.90;99.90;;;;;;5011522;28;20041;-82
2022/06/26 00:32:46;;;;;;;11.68;8.23;;;17.90;99.90;;;;;;5013324;28;20042;-83
2022/06/26 00:35:12;;;;;;;11.10;8.25;;;18.00;99.90;;;;;;5011741;28;20100;-82
2022/06/26 00:37:38;;;;;;;10.40;8.15;;;18.00;99.90;;;;;;5012102;28;20177;-81
2022/06/26 00:40:04;;;;;;;15.52;8.43;;;18.00;99.90;;;;;;5011140;28;20112;-82
2022/06/26 00:42:29;;;;;;;10.00;7.72;;;18.00;99.90;;;;;;4995596;28;20643;-82
2022/06/26 00:44:56;;;;;;;22.08;12.15;;;18.00;99.90;;;;;;5012261;28;20070;-83
2022/06/26 00:47:25;;;;;;;12.52;8.93;;;18.00;99.90;;;;;;5013258;28;20129;-83
2022/06/26 00:49:51;;;;;;;12.75;9.15;;;17.90;99.90;;;;;;5012667;28;20038;-83
2022/06/26 00:52:18;;;;;;;12.13;8.80;;;18.10;99.90;;;;;;5011464;28;20074;-82
2022/06/26 00:54:44;;;;;;;11.45;9.45;;;18.10;99.90;;;;;;4994862;28;20049;-82
2022/06/26 00:57:10;;;;;;;11.82;9.45;;;18.20;99.90;;;;;;5011571;28;20042;-82
2022/06/26 00:59:36;;;;;;;13.70;9.80;;;18.20;99.90;;;;;;5012283;28;20042;-83
2022/06/26 01:02:02;;;;;;;17.00;11.02;;;18.30;99.90;;;;;;5011552;28;20145;-82
2022/06/26 01:04:28;;;;;;;15.05;10.98;;;18.30;99.90;;;;;;5012080;28;20042;-80
2022/06/26 01:06:55;;;;;;;14.80;11.10;;;18.30;99.90;;;;;;5012177;28;20046;-81
2022/06/26 01:09:20;;;;;;;18.25;11.57;;;18.30;99.90;;;;;;5012490;28;20038;-81
2022/06/26 01:11:47;;;;;;;21.80;11.65;;;18.40;99.90;;;;;;5011639;28;20100;-80
2022/06/26 01:14:13;;;;;;;19.02;11.30;;;18.40;99.90;;;;;;5012827;28;20037;-80
2022/06/26 01:16:42;;;;;;;17.83;11.32;;;18.40;99.90;;;;;;5011880;28;20038;-80
2022/06/26 01:19:09;;;;;;;21.10;12.00;;;18.40;99.90;;;;;;5011473;28;20074;-81
2022/06/26 01:21:36;;;;;;;15.93;11.50;;;18.40;99.90;;;;;;5013534;28;20042;-80
2022/06/26 01:24:03;;;;;;;19.30;11.73;;;18.30;99.90;;;;;;5012682;28;20041;-80
2022/06/26 01:26:30;;;;;;;18.40;11.90;;;18.40;99.90;;;;;;5013510;28;20124;-78
2022/06/26 01:28:55;;;;;;;19.23;11.88;;;18.40;99.90;;;;;;5012262;28;20050;-81
2022/06/26 01:31:21;;;;;;;26.85;12.95;;;18.40;99.90;;;;;;5011744;28;20042;-81
2022/06/26 01:33:50;;;;;;;17.15;10.93;;;18.40;99.90;;;;;;5011841;28;20057;-81
2022/06/26 01:36:16;;;;;;;17.88;12.30;;;18.40;99.90;;;;;;5011993;28;20041;-81
2022/06/26 01:38:42;;;;;;;17.88;11.68;;;18.40;99.90;;;;;;5012552;28;20053;-81
2022/06/26 01:41:08;;;;;;;17.38;11.20;;;18.40;99.90;;;;;;5011546;28;20042;-81
2022/06/26 01:43:36;;;;;;;18.98;10.88;;;18.40;99.90;;;;;;5012787;28;20133;-80
2022/06/26 01:46:03;;;;;;;18.10;11.82;;;18.40;99.90;;;;;;5012072;28;20045;-82
2022/06/26 01:48:30;;;;;;;15.95;11.30;;;18.30;99.90;;;;;;5011602;28;20034;-83
2022/06/26 01:50:57;;;;;;;20.45;11.98;;;18.30;99.90;;;;;;5012357;28;20046;-82
2022/06/26 01:53:24;;;;;;;21.85;12.35;;;18.30;99.90;;;;;;5014546;28;20456;-83
2022/06/26 01:55:50;;;;;;;17.58;11.77;;;18.30;99.90;;;;;;5014949;28;20038;-81
2022/06/26 01:58:16;;;;;;;22.25;12.07;;;18.30;99.90;;;;;;4999107;28;20045;-81
2022/06/26 02:00:43;;;;;;;20.67;12.02;;;18.20;99.90;;;;;;5015392;28;20042;-81
2022/06/26 02:03:10;;;;;;;18.40;10.98;;;18.20;99.90;;;;;;5015716;28;20129;-80
2022/06/26 02:05:36;;;;;;;26.77;11.40;;;18.20;99.90;;;;;;5016083;28;20034;-80
2022/06/26 02:08:03;;;;;;;19.48;11.55;;;18.20;99.90;;;;;;5016106;28;20117;-80
2022/06/26 02:16:00;;;;;;;21.15;11.93;;;18.10;99.90;;;;;;5015349;28;20061;-79
2022/06/26 02:18:27;;;;;;;20.08;11.77;;;18.10;99.90;;;;;;5014876;28;20144;-80
2022/06/26 02:20:54;;;;;;;18.75;10.70;;;18.10;99.90;;;;;;5015193;28;20096;-79
2022/06/26 02:23:20;;;;;;;22.38;11.20;;;18.10;99.90;;;;;;4999289;28;20041;-80
2022/06/26 02:25:46;;;;;;;19.15;11.80;;;18.00;99.90;;;;;;5015077;28;20041;-79
2022/06/26 02:28:13;;;;;;;18.13;10.52;;;18.10;99.90;;;;;;5015565;28;20077;-80
2022/06/26 02:30:38;;;;;;;18.20;10.40;;;18.00;99.90;;;;;;5015559;28;20077;-79
2022/06/26 02:33:05;;;;;;;15.48;9.90;;;18.00;99.90;;;;;;5015415;28;20045;-79
2022/06/26 02:35:31;;;;;;;18.98;10.15;;;17.90;99.90;;;;;;5015575;28;20457;-80
2022/06/26 02:37:58;;;;;;;14.45;10.02;;;17.90;99.90;;;;;;5015822;28;20092;-80
2022/06/26 02:40:25;;;;;;;16.45;10.00;;;17.90;99.90;;;;;;5014574;28;20084;-78
2022/06/26 02:42:51;;;;;;;12.18;8.85;;;17.90;99.90;;;;;;5014893;28;20073;-80
2022/06/26 02:45:16;;;;;;;16.77;10.07;;;17.80;99.90;;;;;;5014833;28;20098;-80
2022/06/26 02:47:42;;;;;;;14.35;9.93;;;17.80;99.90;;;;;;5016089;28;20069;-80
2022/06/26 02:50:09;;;;;;;17.08;9.52;;;17.80;99.90;;;;;;5014540;28;20052;-79
2022/06/26 02:52:36;;;;;;;24.63;9.55;;;17.70;99.90;;;;;;5016297;28;20041;-80
2022/06/26 02:55:02;;;;;;;11.48;7.95;;;17.70;99.90;;;;;;5015451;28;20093;-79
2022/06/26 02:57:28;;;;;;;11.73;7.82;;;17.70;99.90;;;;;;5015963;28;20052;-79
2022/06/26 02:59:53;;;;;;;9.30;7.45;;;17.60;99.90;;;;;;5015386;28;20401;-78
2022/06/26 03:02:19;;;;;;;13.68;6.45;;;17.50;99.90;;;;;;5025627;28;20058;-80
2022/06/26 03:04:47;;;;;;;9.75;6.10;;;17.50;99.90;;;;;;5033336;28;20425;-80
2022/06/26 03:07:13;;;;;;;11.43;6.07;;;17.40;99.90;;;;;;5031122;28;20049;-79
2022/06/26 03:09:38;;;;;;;8.68;5.60;;;17.40;99.90;;;;;;4998329;28;20041;-80
2022/06/26 03:12:04;;;;;;;8.45;5.70;;;17.30;99.90;;;;;;5012273;28;20073;-80
2022/06/26 03:14:30;;;;;;;8.48;5.47;;;17.30;99.90;;;;;;5011972;28;20068;-79
2022/06/26 03:16:57;;;;;;;9.77;5.57;;;17.20;99.90;;;;;;5011915;28;20505;-80
2022/06/26 03:19:23;;;;;;;9.65;5.82;;;17.20;99.90;;;;;;5011968;28;20046;-78
2022/06/26 03:21:49;;;;;;;6.72;5.03;;;17.20;99.90;;;;;;5012072;28;20497;-80
2022/06/26 03:24:14;;;;;;;11.23;5.57;;;17.10;99.90;;;;;;5011646;28;20058;-80
2022/06/26 03:26:40;;;;;;;7.80;5.07;;;17.20;99.90;;;;;;5012186;28;20050;-80
2022/06/26 03:29:08;;;;;;;6.78;4.60;;;17.10;99.90;;;;;;5011867;28;20514;-79
2022/06/26 03:31:34;;;;;;;7.18;4.43;;;17.10;99.90;;;;;;5011609;28;20080;-79
2022/06/26 03:34:00;;;;;;;9.57;5.40;;;17.10;99.90;;;;;;4995935;28;20105;-80
2022/06/26 03:36:27;;;;;;;7.25;4.82;;;17.00;99.90;;;;;;5013226;28;20050;-80
2022/06/26 03:38:54;;;;;;;10.82;4.90;;;17.00;99.90;;;;;;5012036;28;20060;-80
2022/06/26 03:41:19;;;;;;;8.90;4.40;;;16.90;99.90;;;;;;5011524;28;20049;-80
2022/06/26 03:43:45;;;;;;;8.25;4.85;;;17.00;99.90;;;;;;5012242;28;20397;-79
2022/06/26 03:46:11;;;;;;;8.45;4.60;;;16.90;99.90;;;;;;4995596;28;20034;-80
2022/06/26 03:48:37;;;;;;;8.07;4.22;;;16.80;99.90;;;;;;5012171;28;20050;-79
2022/06/26 03:51:04;;;;;;;8.00;5.05;;;16.80;99.90;;;;;;5012120;28;20038;-80
2022/06/26 03:53:31;;;;;;;4.82;3.97;;;16.80;99.90;;;;;;5012241;28;20045;-80
2022/06/26 03:55:57;;;;;;;6.63;3.70;;;16.80;99.90;;;;;;5012036;28;20042;-80
2022/06/26 03:58:23;;;;;;;6.82;3.70;;;16.80;99.90;;;;;;5014394;28;20100;-80
2022/06/26 04:00:49;;;;;;;9.98;3.90;;;16.80;99.90;;;;;;4997503;28;20038;-80
2022/06/26 04:03:15;;;;;;;5.70;3.78;;;16.70;99.90;;;;;;5014355;28;20496;-80
2022/06/26 04:05:41;;;;;;;4.38;3.78;;;16.70;99.90;;;;;;5014577;28;20620;-80
2022/06/26 04:08:08;;;;;;;5.68;3.80;;;16.70;99.90;;;;;;5013814;28;20045;-80
2022/06/26 04:10:34;;;;;;;5.25;3.42;;;16.70;99.90;;;;;;5014652;28;20646;-80
2022/06/26 04:13:02;;;;;;;5.18;3.58;;;16.70;99.90;;;;;;5014378;28;20061;-79
2022/06/26 04:15:28;;;;;;;7.18;4.05;;;16.60;99.90;;;;;;5013340;28;20046;-81
2022/06/26 04:17:54;;;;;;;5.85;3.72;;;16.60;99.90;;;;;;5013764;28;20038;-79
2022/06/26 04:20:20;;;;;;;7.57;3.88;;;16.70;99.90;;;;;;5014591;28;20037;-79
2022/06/26 04:22:57;;;;;;;4.53;3.85;;;16.70;99.90;;;;;;5014532;28;20061;-80
2022/06/26 04:25:23;;;;;;;4.97;3.35;;;16.70;99.90;;;;;;4998138;28;20513;-80
2022/06/26 04:27:49;;;;;;;6.07;4.15;;;16.70;99.90;;;;;;5014867;28;20089;-81
2022/06/26 04:30:15;;;;;;;4.53;3.58;;;16.70;99.90;;;;;;5012971;28;20042;-81
2022/06/26 04:32:41;;;;;;;6.50;3.72;;;16.70;99.90;;;;;;5012976;28;20041;-80
2022/06/26 04:35:07;;;;;;;6.57;3.55;;;16.80;99.90;;;;;;5014896;28;20039;-79
2022/06/26 04:37:33;;;;;;;6.95;4.15;;;16.80;99.90;;;;;;5014145;28;20485;-80
2022/06/26 04:39:58;;;;;;;5.45;3.33;;;16.80;99.90;;;;;;5013932;28;20053;-80
2022/06/26 04:42:24;;;;;;;5.60;3.80;;;16.90;99.90;;;;;;4996624;28;20569;-80
2022/06/26 04:44:50;;;;;;;5.25;4.25;;;16.90;99.90;;;;;;5013727;28;20053;-80
2022/06/26 04:47:15;;;;;;;7.00;4.82;;;17.00;99.90;;;;;;5012817;28;20038;-80
2022/06/26 04:49:41;;;;;;;8.18;4.75;;;17.10;99.90;;;;;;4995624;28;20037;-80
2022/06/26 04:52:06;;;;;;;7.97;5.13;;;17.30;99.90;;;;;;5011925;28;20320;-81
2022/06/26 04:54:32;;;;;;;8.85;5.60;;;17.40;99.90;;;;;;5011785;28;20041;-80
2022/06/26 04:56:57;;;;;;;8.98;5.43;;;17.40;99.90;;;;;;4995126;28;20041;-81
2022/06/26 04:59:23;;;;;;;7.97;6.03;;;17.50;99.90;;;;;;5012233;28;20048;-79
2022/06/26 05:01:49;;;;;;;7.25;6.03;;;17.50;99.90;;;;;;5011894;28;20049;-80
2022/06/26 05:04:15;;;;;;;7.78;5.70;;;17.60;99.90;;;;;;5012088;28;20085;-81
2022/06/26 05:06:40;;;;;;;12.20;5.88;;;17.60;99.90;;;;;;5011676;28;20053;-80
2022/06/26 05:09:06;;;;;;;7.70;5.93;;;17.90;99.90;;;;;;5011962;28;20101;-80
2022/06/26 05:11:32;;;;;;;8.32;5.03;;;18.20;99.90;;;;;;5014000;28;20049;-80
2022/06/26 05:13:57;;;;;;;5.78;5.03;;;18.30;99.90;;;;;;5013707;28;20113;-80
2022/06/26 05:16:23;;;;;;;8.07;4.63;;;18.30;99.90;;;;;;5013405;28;20073;-80
2022/06/26 05:18:49;;;;;;;10.88;5.03;;;18.30;99.90;;;;;;4996824;28;20238;-80
2022/06/26 05:21:14;;;;;;;6.60;4.80;;;18.20;99.90;;;;;;5012699;28;20061;-80
2022/06/26 05:23:40;;;;;;;7.45;5.10;;;18.10;99.90;;;;;;5013099;28;20412;-79
2022/06/26 05:26:06;;;;;;;8.45;5.65;;;18.00;99.90;;;;;;5014813;28;20057;-81
2022/06/26 05:28:32;;;;;;;7.65;5.72;;;18.00;99.90;;;;;;4999915;28;20120;-79
2022/06/26 05:30:58;;;;;;;5.20;4.60;;;17.90;99.90;;;;;;5015389;28;20124;-79
2022/06/26 05:33:24;;;;;;;9.43;5.90;;;17.80;99.90;;;;;;5016539;28;20048;-81
2022/06/26 05:35:49;;;;;;;7.28;5.53;;;17.80;99.90;;;;;;5015354;28;20049;-77
2022/06/26 05:38:15;;;;;;;6.55;5.25;;;17.80;99.90;;;;;;5014987;28;20042;-78
2022/06/26 05:40:41;;;;;;;7.80;5.70;;;17.80;99.90;;;;;;5013508;28;20041;-78
2022/06/26 05:43:07;;;;;;;7.40;6.05;;;17.80;99.90;;;;;;5013656;28;20053;-79
2022/06/26 05:45:32;;;;;;;9.43;6.25;;;17.80;99.90;;;;;;5013903;28;20053;-77
2022/06/26 05:47:58;;;;;;;7.53;6.03;;;17.80;99.90;;;;;;5016848;28;20046;-77
2022/06/26 05:50:24;;;;;;;9.93;6.45;;;17.80;99.90;;;;;;5040438;28;20034;-85
2022/06/26 05:52:50;;;;;;;9.57;6.25;;;17.80;99.90;;;;;;5035198;28;20054;-78
2022/06/26 05:55:16;;;;;;;10.30;6.72;;;17.90;99.90;;;;;;5013321;28;20130;-77
2022/06/26 05:57:42;;;;;;;8.73;6.40;;;17.90;99.90;;;;;;5013447;28;20042;-78
2022/06/26 06:00:08;;;;;;;9.55;6.43;;;17.80;99.90;;;;;;5013084;28;20124;-80
2022/06/26 06:02:34;;;;;;;8.80;6.30;;;17.80;99.90;;;;;;4996857;28;20081;-80
2022/06/26 06:05:00;;;;;;;9.40;7.00;;;17.80;99.90;;;;;;5013146;28;20576;-81
2022/06/26 06:07:26;;;;;;;11.05;6.75;;;17.80;99.90;;;;;;5013314;28;20046;-80
2022/06/26 06:09:52;;;;;;;12.35;7.32;;;17.80;99.90;;;;;;5012728;28;20100;-80
2022/06/26 06:12:17;;;;;;;9.85;7.68;;;17.80;99.90;;;;;;5013134;28;20054;-79
2022/06/26 06:14:43;;;;;;;10.07;7.50;;;17.80;99.90;;;;;;5013549;28;20038;-80
2022/06/26 06:19:52;;;;;;;12.43;9.32;;;18.00;99.90;;;;;;5012842;28;20133;-81
2022/06/26 06:22:18;;;;;;;12.43;8.93;;;18.10;99.90;;;;;;5013176;28;20081;-80
2022/06/26 06:24:43;;;;;;;14.23;9.35;;;18.10;99.90;;;;;;4996887;28;20049;-81
2022/06/26 06:27:09;;;;;;;14.63;9.20;;;18.20;99.90;;;;;;5013517;28;20144;-81
2022/06/26 06:29:35;;;;;;;13.35;9.18;;;18.20;99.90;;;;;;5014545;28;20042;-81
2022/06/26 06:32:00;;;;;;;14.63;9.23;;;18.20;99.90;;;;;;4997541;28;20473;-80
2022/06/26 06:34:26;;;;;;;15.13;10.50;;;18.30;99.90;;;;;;4997257;28;20033;-81
2022/06/26 06:36:52;;;;;;;15.43;10.95;;;18.40;99.90;;;;;;4995998;28;20049;-80
2022/06/26 06:39:18;;;;;;;19.05;11.60;;;18.50;99.90;;;;;;5013230;28;20050;-81
2022/06/26 06:41:43;;;;;;;16.85;11.45;;;18.50;99.90;;;;;;5012851;28;20038;-82
2022/06/26 06:44:09;;;;;;;12.88;10.48;;;18.50;99.90;;;;;;4996860;28;20046;-82
2022/06/26 06:46:35;;;;;;;15.23;10.63;;;18.50;99.90;;;;;;5013141;28;20513;-82
2022/06/26 06:49:00;;;;;;;16.63;10.88;;;18.50;99.90;;;;;;4997332;28;20045;-82
2022/06/26 06:51:26;;;;;;;18.27;11.38;;;18.60;99.90;;;;;;5013145;28;20045;-81
2022/06/26 06:53:52;;;;;;;16.92;11.32;;;18.70;99.90;;;;;;5014745;28;20050;-83
2022/06/26 06:56:17;;;;;;;14.63;10.77;;;18.80;99.90;;;;;;5012897;28;20129;-83
2022/06/26 06:58:43;;;;;;;18.63;11.63;;;18.80;99.90;;;;;;5013735;28;20042;-82
2022/06/26 07:01:09;;;;;;;18.85;12.02;;;18.90;99.90;;;;;;5013616;28;20045;-82
2022/06/26 07:03:34;;;;;;;21.27;12.70;;;19.00;99.90;;;;;;5013935;28;20069;-82
2022/06/26 07:06:00;;;;;;;21.52;12.88;;;19.10;99.90;;;;;;5015567;28;20041;-83
2022/06/26 07:08:26;;;;;;;15.68;12.23;;;19.20;99.90;;;;;;5015068;28;20489;-82
2022/06/26 07:10:51;;;;;;;18.08;13.05;;;19.60;99.90;;;;;;5014857;28;20084;-83
2022/06/26 07:13:17;;;;;;;21.77;12.95;;;20.20;99.90;;;;;;4997498;28;20037;-82
2022/06/26 07:15:42;;;;;;;18.90;13.05;;;20.90;99.90;;;;;;4997244;28;20488;-83
2022/06/26 07:18:08;;;;;;;19.95;12.80;;;21.50;99.90;;;;;;5013382;28;20049;-82
2022/06/26 07:20:34;;;;;;;15.45;12.57;;;22.10;99.90;;;;;;4979871;28;20054;-83
2022/06/26 07:22:59;;;;;;;16.08;12.32;;;22.40;99.90;;;;;;5013713;28;20409;-82
2022/06/26 07:25:25;;;;;;;13.88;11.80;;;22.50;99.90;;;;;;5013020;28;20069;-82
2022/06/26 07:27:51;;;;;;;15.82;11.45;;;22.80;99.90;;;;;;5013375;28;20042;-83
2022/06/26 07:30:16;;;;;;;14.52;11.73;;;23.20;99.90;;;;;;5013504;28;20048;-82
2022/06/26 07:32:44;;;;;;;15.57;11.65;;;23.60;99.90;;;;;;5015719;28;20029;-81
2022/06/26 07:35:10;;;;;;;15.43;11.30;;;24.00;99.90;;;;;;5014531;28;20034;-81
2022/06/26 07:37:35;;;;;;;13.20;9.95;;;24.50;99.90;;;;;;5015237;28;20050;-82
2022/06/26 07:40:01;;;;;;;14.07;10.60;;;24.80;99.90;;;;;;5014120;28;20046;-81
2022/06/26 07:42:26;;;;;;;12.60;9.55;;;25.00;99.90;;;;;;4997405;28;20082;-82
2022/06/26 07:44:52;;;;;;;10.93;8.10;;;25.20;99.90;;;;;;5013878;28;20052;-81
2022/06/26 07:47:18;;;;;;;12.90;9.15;;;25.50;99.90;;;;;;5012965;28;20042;-82
2022/06/26 07:49:43;;;;;;;9.75;7.78;;;25.70;99.90;;;;;;5013056;28;20052;-82
2022/06/26 07:52:09;;;;;;;8.80;7.88;;;25.70;99.90;;;;;;5013829;28;20049;-81
2022/06/26 07:54:35;;;;;;;14.63;8.48;;;25.70;99.90;;;;;;5015471;28;20117;-82
2022/06/26 07:57:00;;;;;;;9.57;7.63;;;25.70;99.90;;;;;;5013786;28;20038;-81
2022/06/26 07:59:26;;;;;;;12.00;7.60;;;25.80;99.90;;;;;;5013074;28;20488;-82
2022/06/26 08:01:52;;;;;;;9.73;6.85;;;25.70;99.90;;;;;;4996265;28;20085;-83
2022/06/26 08:04:17;;;;;;;8.50;6.95;;;25.20;99.90;;;;;;5012385;28;20386;-82
2022/06/26 08:06:43;;;;;;;7.43;6.05;;;24.80;99.90;;;;;;5013577;28;20049;-82
2022/06/26 08:09:08;;;;;;;9.38;6.47;;;24.30;99.90;;;;;;5013715;28;20041;-82
2022/06/26 08:11:34;;;;;;;9.05;7.45;;;24.30;99.90;;;;;;4996876;28;20037;-82
2022/06/26 08:14:00;;;;;;;9.20;6.57;;;24.50;99.90;;;;;;4996097;28;20041;-82
2022/06/26 08:16:26;;;;;;;8.55;6.40;;;24.80;99.90;;;;;;5013943;28;20048;-79
2022/06/26 08:18:51;;;;;;;9.98;6.90;;;25.30;99.90;;;;;;4997319;28;20665;-78
2022/06/26 08:24:02;;;;;;;7.75;6.30;;;25.40;99.90;;;;;;5012765;28;20057;-78
2022/06/26 08:26:27;;;;;;;9.75;6.07;;;25.50;99.90;;;;;;5012997;28;20041;-78
2022/06/26 08:28:53;;;;;;;5.65;5.10;;;25.30;99.90;;;;;;5013178;28;20045;-78
2022/06/26 08:31:19;;;;;;;5.70;4.05;;;25.20;99.90;;;;;;5013686;28;20041;-79
2022/06/26 08:33:45;;;;;;;4.72;3.85;;;25.30;99.90;;;;;;4996060;28;20041;-78
2022/06/26 08:36:10;;;;;;;7.00;4.55;;;25.30;99.90;;;;;;5011447;28;20583;-78
2022/06/26 08:38:36;;;;;;;5.05;3.50;;;25.30;99.90;;;;;;5012008;28;20077;-78
2022/06/26 08:41:02;;;;;;;6.35;3.35;;;25.20;99.90;;;;;;5012083;28;20042;-77
2022/06/26 08:43:29;;;;;;;5.03;3.65;;;25.20;99.90;;;;;;5012709;28;20118;-78
2022/06/26 08:45:55;;;;;;;6.35;4.07;;;25.50;99.90;;;;;;5013245;28;20037;-78
2022/06/26 08:48:25;;;;;;;4.63;4.03;;;25.80;99.90;;;;;;5011143;28;20045;-78
2022/06/26 08:50:51;;;;;;;6.38;3.70;;;25.90;99.90;;;;;;4995626;28;20492;-79
2022/06/26 08:53:19;;;;;;;6.70;4.10;;;26.00;99.90;;;;;;4995338;28;20041;-79
2022/06/26 08:55:45;;;;;;;5.05;3.25;;;26.10;99.90;;;;;;5012245;28;20089;-78
2022/06/26 08:58:10;;;;;;;4.63;2.85;;;26.10;99.90;;;;;;4998167;28;20038;-79
2022/06/26 09:00:36;;;;;;;4.30;2.78;;;25.80;99.90;;;;;;4995954;28;20046;-79
2022/06/26 09:03:02;;;;;;;5.28;2.90;;;25.30;99.90;;;;;;5016234;28;20129;-80
2022/06/26 09:05:28;;;;;;;4.78;2.63;;;25.00;99.90;;;;;;5012955;28;20125;-80
2022/06/26 09:07:56;;;;;;;6.07;4.72;;;24.80;99.90;;;;;;5013188;28;20046;-80
2022/06/26 09:10:25;;;;;;;3.85;3.45;;;25.00;99.90;;;;;;4995873;28;20049;-80
2022/06/26 09:12:52;;;;;;;3.63;2.63;;;25.20;99.90;;;;;;4996596;28;20489;-79
2022/06/26 09:15:19;;;;;;;5.18;2.78;;;25.50;99.90;;;;;;5013021;28;20260;-79
2022/06/26 09:18:03;;;;;;;6.00;3.38;;;25.30;99.90;;;;;;5022686;28;20101;-78
2022/06/26 09:20:31;;;;;;;4.28;3.58;;;25.20;99.90;;;;;;5026618;28;20054;-82
2022/06/26 09:22:59;;;;;;;5.15;2.80;;;25.20;99.90;;;;;;5015710;28;20045;-82
2022/06/26 09:25:39;;;;;;;3.00;2.60;;;25.00;99.90;;;;;;5013903;28;20401;-81
2022/06/26 09:28:13;;;;;;;7.35;2.22;;;25.10;99.90;;;;;;5012879;28;20081;-82
2022/06/26 09:30:46;;;;;;;6.05;2.78;;;25.20;99.90;;;;;;4998492;28;20042;-82
2022/06/26 09:33:12;;;;;;;5.70;2.95;;;25.30;99.90;;;;;;4997287;28;20041;-82
2022/06/26 09:35:37;;;;;;;5.78;2.92;;;25.30;99.90;;;;;;5012567;28;20366;-81
2022/06/26 09:38:04;;;;;;;6.68;3.20;;;25.30;99.90;;;;;;5014462;28;20092;-82
2022/06/26 09:40:30;;;;;;;5.05;3.30;;;25.10;99.90;;;;;;5013881;28;20042;-79
2022/06/26 09:42:56;;;;;;;7.07;3.38;;;24.90;99.90;;;;;;4998158;28;20142;-80
2022/06/26 09:45:21;;;;;;;6.65;2.40;;;24.70;99.90;;;;;;4997407;28;20097;-81
2022/06/26 09:47:48;;;;;;;6.05;2.90;;;24.50;99.90;;;;;;4996718;28;20161;-81
2022/06/26 09:50:14;;;;;;;5.20;2.40;;;24.30;99.90;;;;;;4995448;28;20092;-81
2022/06/26 09:52:42;;;;;;;5.00;2.53;;;24.30;99.90;;;;;;4997317;28;20061;-80
2022/06/26 09:55:09;;;;;;;5.70;2.92;;;24.30;99.90;;;;;;5012285;28;20393;-81
2022/06/26 09:57:36;;;;;;;3.63;2.40;;;24.30;99.90;;;;;;4998894;28;20084;-81
2022/06/26 10:00:04;;;;;;;4.13;2.63;;;24.30;99.90;;;;;;5011625;28;20056;-81
2022/06/26 10:08:05;;;;;;;8.35;2.50;;;24.30;99.90;;;;;;5012396;28;20579;-80
2022/06/26 10:10:33;;;;;;;4.80;2.95;;;24.50;99.90;;;;;;5010975;28;20070;-80
2022/06/26 10:13:05;;;;;;;5.60;2.80;;;24.50;99.90;;;;;;5015357;28;20042;-80
2022/06/26 10:16:07;;;;;;;6.63;3.03;;;24.40;99.90;;;;;;5015488;28;20362;-80
2022/06/26 10:18:50;;;;;;;4.97;3.17;;;24.10;99.90;;;;;;5016440;28;20121;-80
2022/06/26 10:21:16;;;;;;;4.93;2.38;;;23.90;99.90;;;;;;5015589;28;20058;-80
2022/06/26 10:23:42;;;;;;;5.35;3.00;;;23.80;99.90;;;;;;5015279;28;20050;-80
2022/06/26 10:26:12;;;;;;;2.40;2.20;;;23.60;99.90;;;;;;5015516;28;20706;-78
2022/06/26 10:28:53;;;;;;;8.13;3.17;;;23.50;99.90;;;;;;5015534;28;20038;-80
2022/06/26 10:31:19;;;;;;;5.13;2.40;;;23.60;99.90;;;;;;5017723;28;20049;-80
2022/06/26 10:33:48;;;;;;;4.90;2.42;;;23.60;99.90;;;;;;5018278;28;20037;-79
2022/06/26 10:36:24;;;;;;;3.30;2.58;;;23.60;99.90;;;;;;5016782;28;20560;-80
2022/06/26 10:38:50;;;;;;;4.70;2.92;;;23.50;99.90;;;;;;5018357;28;20038;-80
2022/06/26 10:44:04;;;;;;;10.95;3.42;;;23.40;99.90;;;;;;5017318;28;20050;-80
2022/06/26 10:46:45;;;;;;;5.90;3.40;;;23.40;99.90;;;;;;5001490;28;20089;-80
2022/06/26 10:49:11;;;;;;;5.70;2.92;;;23.40;99.90;;;;;;5017747;28;20069;-80
2022/06/26 10:51:42;;;;;;;5.45;2.72;;;23.30;99.90;;;;;;5017159;28;20038;-80
2022/06/26 10:54:22;;;;;;;5.67;2.53;;;23.40;99.90;;;;;;5016419;28;20034;-80
2022/06/26 10:57:02;;;;;;;6.07;2.77;;;23.40;99.90;;;;;;5000100;28;20312;-81
2022/06/26 10:59:28;;;;;;;6.63;2.60;;;23.50;99.90;;;;;;5016200;28;20046;-80
2022/06/26 11:01:54;;;;;;;6.28;3.10;;;23.80;99.90;;;;;;5016236;28;20045;-80
2022/06/26 11:04:19;;;;;;;4.10;2.28;;;24.10;99.90;;;;;;5015822;28;20084;-79
2022/06/26 11:06:46;;;;;;;5.60;2.97;;;24.20;99.90;;;;;;5016096;28;20533;-80
2022/06/26 11:09:11;;;;;;;4.07;2.60;;;24.30;99.90;;;;;;5016032;28;20042;-80
2022/06/26 11:11:37;;;;;;;6.15;2.95;;;24.30;99.90;;;;;;5015870;28;20049;-80
2022/06/26 11:14:06;;;;;;;6.93;3.00;;;24.20;99.90;;;;;;5014907;28;20057;-80
2022/06/26 11:16:41;;;;;;;5.68;2.47;;;24.20;99.90;;;;;;4997601;28;20034;-80
2022/06/26 11:19:25;;;;;;;6.60;3.00;;;24.30;99.90;;;;;;5014362;28;20050;-80
2022/06/26 11:21:51;;;;;;;4.57;2.70;;;24.10;99.90;;;;;;5014898;28;20046;-79
2022/06/26 11:24:16;;;;;;;5.90;2.65;;;24.00;99.90;;;;;;5014493;28;20041;-79
2022/06/26 11:26:43;;;;;;;3.72;2.58;;;24.00;99.90;;;;;;4998449;28;20034;-80
2022/06/26 11:29:10;;;;;;;4.15;2.10;;;24.10;99.90;;;;;;5001862;28;20049;-80
2022/06/26 11:31:36;;;;;;;6.13;2.88;;;24.10;99.90;;;;;;5035064;28;20029;-80
2022/06/26 11:34:09;;;;;;;5.70;2.50;;;24.20;99.90;;;;;;5037633;28;20064;-80
2022/06/26 11:36:35;;;;;;;4.47;2.00;;;24.30;99.90;;;;;;5026842;28;20124;-80
2022/06/26 11:39:00;;;;;;;5.72;2.40;;;24.30;99.90;;;;;;5032576;28;20072;-80
2022/06/26 11:41:26;;;;;;;6.07;2.50;;;24.30;99.90;;;;;;5015227;28;20038;-81
2022/06/26 11:43:54;;;;;;;4.60;1.92;;;24.30;99.90;;;;;;5017282;28;20408;-80
2022/06/26 11:46:21;;;;;;;5.97;2.40;;;24.30;99.90;;;;;;5029514;28;20057;-80
2022/06/26 11:48:51;;;;;;;4.30;2.30;;;24.20;99.90;;;;;;5016806;28;20034;-79
2022/06/26 11:51:18;;;;;;;3.92;2.58;;;24.20;99.90;;;;;;5048580;28;20069;-80
2022/06/26 11:53:46;;;;;;;4.85;2.70;;;24.00;99.90;;;;;;5037572;28;20559;-79
2022/06/26 11:56:22;;;;;;;4.65;2.63;;;23.90;99.90;;;;;;5011974;28;20041;-79
2022/06/26 11:58:51;;;;;;;3.15;2.35;;;24.00;99.90;;;;;;5033742;28;20038;-80
2022/06/26 12:01:17;;;;;;;4.15;2.17;;;24.00;99.90;;;;;;5038746;28;20068;-80
2022/06/26 12:03:43;;;;;;;4.32;2.22;;;23.90;99.90;;;;;;5036254;28;20037;-79
2022/06/26 12:06:09;;;;;;;6.57;2.83;;;23.90;99.90;;;;;;5015319;28;20123;-79
2022/06/26 12:08:34;;;;;;;7.90;2.47;;;23.90;99.90;;;;;;5028740;28;20074;-79
2022/06/26 12:11:01;;;;;;;5.20;3.17;;;23.90;99.90;;;;;;5003457;28;20077;-80
2022/06/26 12:13:36;;;;;;;3.60;2.60;;;23.90;99.90;;;;;;5022317;28;20037;-79
2022/06/26 12:16:07;;;;;;;4.97;2.53;;;23.80;99.90;;;;;;5017821;28;20042;-79
2022/06/26 12:18:37;;;;;;;;;;;23.60;99.90;;;;;;5007396;28;20049;-78
2022/06/26 12:21:03;;;;;;;4.05;2.95;;;23.60;99.90;;;;;;5029312;28;20415;-78
2022/06/26 12:23:37;;;;;;;5.13;2.75;;;23.50;99.90;;;;;;5023207;28;20497;-78
2022/06/26 12:26:07;;;;;;;6.28;3.95;;;23.50;99.90;;;;;;5032082;28;20041;-78
2022/06/26 12:28:41;;;;;;;4.75;3.35;;;23.30;99.90;;;;;;5013132;28;20056;-78
2022/06/26 12:31:06;;;;;;;8.93;2.75;;;23.40;99.90;;;;;;5019542;28;20072;-78
2022/06/26 12:33:32;;;;;;;4.70;2.85;;;23.30;99.90;;;;;;5021691;28;20042;-78
2022/06/26 12:35:59;;;;;;;2.97;2.50;;;23.30;99.90;;;;;;5022756;28;20034;-79
2022/06/26 12:38:28;;;;;;;4.20;2.67;;;23.20;99.90;;;;;;5021501;28;20061;-79
2022/06/26 12:40:55;;;;;;;5.20;3.17;;;23.20;99.90;;;;;;5021789;28;20126;-78
2022/06/26 12:43:21;;;;;;;4.88;2.55;;;23.10;99.90;;;;;;5021567;28;20064;-78
2022/06/26 12:45:47;;;;;;;3.92;2.83;;;23.10;99.90;;;;;;5040224;28;20033;-80
2022/06/26 12:48:13;;;;;;;3.90;2.70;;;23.10;99.90;;;;;;5022612;28;20403;-79
2022/06/26 12:50:39;;;;;;;6.38;2.10;;;23.00;99.90;;;;;;5035610;28;20121;-79
2022/06/26 12:53:05;;;;;;;8.07;2.65;;;23.00;99.90;;;;;;5020199;28;20041;-78
2022/06/26 12:55:30;;;;;;;6.63;2.28;;;23.00;99.90;;;;;;5009227;28;20038;-79
2022/06/26 12:57:56;;;;;;;4.47;2.05;;;22.90;99.90;;;;;;5012520;28;20559;-79